createdAt,value
2022-12-29T00:02:20.008Z,100808.63
2022-12-29T00:05:07.075Z,100696.91
2022-12-29T00:07:53.901Z,100854.72
2022-12-29T00:10:40.757Z,100852.81
2022-12-29T00:13:26.577Z,100849.41
2022-12-29T00:16:13.652Z,100837.13
2022-12-29T00:19:01.095Z,100858.69
2022-12-29T00:21:47.419Z,100858.66
2022-12-29T00:24:27.249Z,100857.47
2022-12-29T00:27:24.121Z,100867.97
2022-12-29T00:30:11.403Z,100860.16
2022-12-29T00:32:56.801Z,100856.56
2022-12-29T00:35:46.798Z,100863.31
2022-12-29T00:38:32.795Z,100864.06
2022-12-29T00:41:18.458Z,100858.88
2022-12-29T00:44:03.910Z,100843.97
2022-12-29T00:46:50.958Z,100828.28
2022-12-29T00:49:53.270Z,100838.56
2022-12-29T00:52:40.301Z,100841.19
2022-12-29T00:55:27.610Z,100859.38
2022-12-29T00:58:14.494Z,100873.06
2022-12-29T01:01:01.503Z,100860.09
2022-12-29T01:03:48.440Z,100878.06
2022-12-29T01:06:35.505Z,100695.78
2022-12-29T01:09:21.469Z,100871.91
2022-12-29T01:12:08.325Z,100873.53
2022-12-29T01:14:55.913Z,100873.44
2022-12-29T01:17:42.870Z,100873.41
2022-12-29T01:20:30.747Z,100869.94
2022-12-29T01:23:17.679Z,100876.72
2022-12-29T01:26:05.736Z,100790.28
2022-12-29T01:28:52.619Z,100868.66
2022-12-29T01:31:39.628Z,100846.06
2022-12-29T01:34:26.638Z,100852.13
2022-12-29T01:37:13.572Z,100874.59
2022-12-29T01:40:01.168Z,100857.97
2022-12-29T01:42:48.323Z,100782.00
2022-12-29T01:45:36.875Z,100870.81
2022-12-29T01:48:26.978Z,100870.69
2022-12-29T01:51:14.634Z,100875.09
2022-12-29T01:54:01.676Z,100869.84
2022-12-29T01:56:48.584Z,100769.63
2022-12-29T01:59:43.598Z,100862.88
2022-12-29T02:02:33.480Z,100795.69
2022-12-29T02:05:26.353Z,100860.91
2022-12-29T02:08:14.099Z,100870.31
2022-12-29T02:11:03.101Z,100870.19
2022-12-29T02:13:54.536Z,100854.41
2022-12-29T02:17:50.179Z,100865.75
2022-12-29T02:21:12.281Z,100858.75
2022-12-29T02:24:20.595Z,100830.00
2022-12-29T02:27:19.705Z,100862.00
2022-12-29T02:30:38.989Z,100845.25
2022-12-29T02:33:25.816Z,100866.94
2022-12-29T02:36:22.787Z,100860.91
2022-12-29T02:39:27.879Z,100854.84
2022-12-29T02:42:24.029Z,100860.81
2022-12-29T02:45:21.209Z,100853.00
2022-12-29T02:48:16.019Z,100852.97
2022-12-29T02:51:18.599Z,100853.69
2022-12-29T02:54:05.077Z,100705.38
2022-12-29T02:56:52.789Z,100664.47
2022-12-29T02:59:40.114Z,100856.06
2022-12-29T03:02:45.457Z,100848.25
2022-12-29T03:06:12.507Z,100849.03
2022-12-29T03:09:19.100Z,100842.97
2022-12-29T03:12:29.693Z,100845.50
2022-12-29T03:15:23.825Z,100817.84
2022-12-29T03:18:26.212Z,100856.44
2022-12-29T03:21:23.403Z,100851.19
2022-12-29T03:24:10.628Z,100848.56
2022-12-29T03:26:58.765Z,100851.94
2022-12-29T03:29:52.674Z,100839.00
2022-12-29T03:32:44.014Z,100694.19
2022-12-29T03:35:35.789Z,100833.75
2022-12-29T03:38:34.640Z,100845.69
2022-12-29T03:41:27.184Z,100844.44
2022-12-29T03:44:14.193Z,100813.88
2022-12-29T03:47:01.484Z,100707.31
2022-12-29T03:49:48.374Z,100849.56
2022-12-29T03:52:36.930Z,100865.88
2022-12-29T03:55:25.187Z,100865.03
2022-12-29T03:58:12.840Z,100876.75
2022-12-29T04:01:20.127Z,100875.22
2022-12-29T04:04:07.140Z,100864.13
2022-12-29T04:06:54.312Z,100863.25
2022-12-29T04:09:41.481Z,100855.34
2022-12-29T04:12:31.167Z,100852.50
2022-12-29T04:15:18.889Z,100844.91
2022-12-29T04:18:05.736Z,100722.84
2022-12-29T04:20:53.154Z,100855.59
2022-12-29T04:23:40.261Z,100853.97
2022-12-29T04:26:29.730Z,100800.66
2022-12-29T04:29:55.041Z,100815.84
2022-12-29T04:33:00.749Z,100813.34
2022-12-29T04:35:48.959Z,100836.06
2022-12-29T04:38:36.812Z,100734.13
2022-12-29T04:41:25.270Z,100837.22
2022-12-29T04:44:12.484Z,100834.69
2022-12-29T04:47:23.996Z,100823.66
2022-12-29T04:50:42.945Z,100795.06
2022-12-29T04:53:40.562Z,100795.19
2022-12-29T04:56:28.647Z,100810.28
2022-12-29T04:59:15.564Z,100823.28
2022-12-29T05:02:04.177Z,100800.06
2022-12-29T05:04:53.292Z,100808.91
2022-12-29T05:07:40.272Z,100806.50
2022-12-29T05:10:28.519Z,100808.31
2022-12-29T05:13:19.165Z,100804.22
2022-12-29T05:16:12.576Z,100798.34
2022-12-29T05:18:59.639Z,100777.56
2022-12-29T05:21:46.689Z,100792.63
2022-12-29T05:24:34.282Z,100784.22
2022-12-29T05:27:21.240Z,100767.97
2022-12-29T05:30:30.407Z,100787.94
2022-12-29T05:33:17.921Z,100787.22
2022-12-29T05:36:06.058Z,100674.88
2022-12-29T05:38:54.010Z,100790.91
2022-12-29T05:41:40.949Z,100807.25
2022-12-29T05:44:50.654Z,100790.28
2022-12-29T05:47:44.621Z,100780.13
2022-12-29T05:51:00.002Z,100773.44
2022-12-29T05:53:57.637Z,100782.97
2022-12-29T05:56:44.838Z,100766.81
2022-12-29T05:59:32.554Z,100723.31
2022-12-29T06:02:19.562Z,100768.75
2022-12-29T06:05:07.871Z,100776.59
2022-12-29T06:07:56.464Z,100773.28
2022-12-29T06:10:43.597Z,100729.66
2022-12-29T06:13:30.759Z,100774.38
2022-12-29T06:16:18.299Z,100778.78
2022-12-29T06:19:05.474Z,100771.22
2022-12-29T06:21:52.317Z,100777.28
2022-12-29T06:24:39.605Z,100784.31
2022-12-29T06:27:26.487Z,100765.53
2022-12-29T06:30:14.058Z,100761.38
2022-12-29T06:33:01.431Z,100769.28
2022-12-29T06:35:48.979Z,100757.38
2022-12-29T06:38:36.274Z,100751.44
2022-12-29T06:41:27.037Z,100714.13
2022-12-29T06:44:33.586Z,100744.88
2022-12-29T06:47:23.332Z,100751.00
2022-12-29T06:50:10.170Z,100762.28
2022-12-29T06:52:57.207Z,100752.09
2022-12-29T06:55:44.061Z,100744.53
2022-12-29T06:58:30.963Z,100721.09
2022-12-29T07:01:18.032Z,100743.09
2022-12-29T07:04:04.945Z,100730.31
2022-12-29T07:06:51.810Z,100723.59
2022-12-29T07:09:38.736Z,100710.81
2022-12-29T07:12:25.794Z,100702.19
2022-12-29T07:15:12.750Z,100727.38
2022-12-29T07:17:59.785Z,100736.94
2022-12-29T07:20:46.780Z,100716.34
2022-12-29T07:23:33.718Z,100742.31
2022-12-29T07:26:26.893Z,100692.91
2022-12-29T07:29:16.252Z,100717.50
2022-12-29T07:32:03.244Z,100708.09
2022-12-29T07:34:50.197Z,100732.53
2022-12-29T07:37:37.091Z,100642.84
2022-12-29T07:40:25.071Z,100596.94
2022-12-29T07:43:12.015Z,100738.94
2022-12-29T07:46:17.471Z,100729.66
2022-12-29T07:49:17.683Z,100730.63
2022-12-29T07:51:44.614Z,100664.56
2022-12-29T07:54:13.066Z,100697.69
2022-12-29T07:56:39.939Z,100609.19
2022-12-29T07:59:06.885Z,100622.22
2022-12-29T08:01:33.887Z,100726.91
2022-12-29T08:04:00.971Z,100703.44
2022-12-29T08:06:28.012Z,100727.97
2022-12-29T08:08:57.233Z,100707.25
2022-12-29T08:11:24.993Z,100704.84
2022-12-29T08:13:51.910Z,100703.97
2022-12-29T08:16:19.263Z,100719.66
2022-12-29T08:18:46.236Z,100666.66
2022-12-29T08:21:13.169Z,100738.13
2022-12-29T08:23:40.115Z,100738.19
2022-12-29T08:26:07.241Z,100727.09
2022-12-29T08:28:34.417Z,100735.81
2022-12-29T08:31:02.781Z,100716.97
2022-12-29T08:33:50.250Z,100721.41
2022-12-29T08:36:37.401Z,100709.47
2022-12-29T08:39:24.665Z,100694.84
2022-12-29T08:42:11.778Z,100693.28
2022-12-29T08:44:59.277Z,100680.47
2022-12-29T08:47:46.649Z,100677.97
2022-12-29T08:50:33.518Z,100647.78
2022-12-29T08:53:20.327Z,100670.44
2022-12-29T08:56:08.612Z,100542.13
2022-12-29T08:58:44.735Z,100666.38
2022-12-29T09:01:32.185Z,100667.34
2022-12-29T09:04:19.332Z,100658.78
2022-12-29T09:07:06.506Z,100665.03
2022-12-29T09:09:54.329Z,100606.06
2022-12-29T09:12:41.314Z,100673.03
2022-12-29T09:15:29.238Z,100682.63
2022-12-29T09:18:20.552Z,100669.75
2022-12-29T09:21:08.265Z,100685.63
2022-12-29T09:23:55.586Z,100685.88
2022-12-29T09:26:46.948Z,100652.22
2022-12-29T09:29:34.195Z,100671.38
2022-12-29T09:32:22.965Z,100631.56
2022-12-29T09:35:10.637Z,100517.97
2022-12-29T09:37:57.466Z,100608.31
2022-12-29T09:40:51.794Z,100624.03
2022-12-29T09:44:00.525Z,100637.88
2022-12-29T09:46:58.444Z,100612.88
2022-12-29T09:50:07.897Z,100605.16
2022-12-29T09:53:35.686Z,100594.78
2022-12-29T09:56:23.404Z,100597.47
2022-12-29T09:59:13.543Z,100603.59
2022-12-29T10:02:42.396Z,100590.66
2022-12-29T10:06:06.911Z,100582.91
2022-12-29T10:09:17.589Z,100591.59
2022-12-29T10:12:39.594Z,100591.63
2022-12-29T10:15:48.705Z,100555.31
2022-12-29T10:19:03.803Z,100566.59
2022-12-29T10:21:53.522Z,100574.41
2022-12-29T10:24:43.069Z,100536.28
2022-12-29T10:27:34.693Z,100567.53
2022-12-29T10:30:23.689Z,100565.78
2022-12-29T10:33:15.629Z,100558.03
2022-12-29T10:36:03.184Z,100493.06
2022-12-29T10:38:38.985Z,100545.94
2022-12-29T10:42:00.893Z,100539.03
2022-12-29T10:44:51.937Z,100526.06
2022-12-29T10:47:46.563Z,100526.94
2022-12-29T10:50:33.899Z,100515.69
2022-12-29T10:53:23.830Z,100507.91
2022-12-29T10:56:11.156Z,100397.94
2022-12-29T10:58:58.208Z,100503.59
2022-12-29T11:01:53.377Z,100411.81
2022-12-29T11:04:54.540Z,100492.31
2022-12-29T11:07:42.364Z,100401.44
2022-12-29T11:10:50.708Z,100473.28
2022-12-29T11:13:45.388Z,100462.03
2022-12-29T11:16:33.215Z,100468.94
2022-12-29T11:19:21.005Z,100382.38
2022-12-29T11:22:07.942Z,100448.19
2022-12-29T11:25:05.511Z,100446.41
2022-12-29T11:27:52.866Z,100442.06
2022-12-29T11:30:46.056Z,100435.16
2022-12-29T11:33:33.312Z,100412.59
2022-12-29T11:36:27.815Z,100411.72
2022-12-29T11:39:16.666Z,100406.50
2022-12-29T11:42:13.411Z,100394.34
2022-12-29T11:45:10.643Z,100411.63
2022-12-29T11:47:58.122Z,100381.28
2022-12-29T11:50:53.695Z,100395.09
2022-12-29T11:53:40.699Z,100394.19
2022-12-29T11:56:35.393Z,100388.97
2022-12-29T11:59:48.198Z,100340.50
2022-12-29T12:02:43.235Z,100375.88
2022-12-29T12:05:53.043Z,100370.66
2022-12-29T12:08:52.427Z,100360.19
2022-12-29T12:11:47.937Z,100354.09
2022-12-29T12:14:50.423Z,100354.91
2022-12-29T12:18:09.546Z,100261.56
2022-12-29T12:21:31.663Z,100360.00
2022-12-29T12:24:29.541Z,100344.38
2022-12-29T12:26:58.792Z,100269.13
2022-12-29T12:29:59.090Z,100325.16
2022-12-29T12:33:07.242Z,100317.28
2022-12-29T12:36:09.909Z,100316.34
2022-12-29T12:39:17.686Z,100318.03
2022-12-29T12:42:07.062Z,100314.50
2022-12-29T12:45:22.026Z,100306.63
2022-12-29T12:48:23.594Z,100290.94
2022-12-29T12:51:20.731Z,100290.88
2022-12-29T12:54:10.458Z,100293.41
2022-12-29T12:57:25.825Z,100279.47
2022-12-29T13:00:18.447Z,100287.22
2022-12-29T13:03:17.691Z,100288.03
2022-12-29T13:06:27.749Z,100280.16
2022-12-29T13:09:46.909Z,100273.16
2022-12-29T13:12:36.406Z,100264.38
2022-12-29T13:15:33.640Z,100256.53
2022-12-29T13:18:52.694Z,100240.81
2022-12-29T13:21:52.192Z,100227.84
2022-12-29T13:24:30.038Z,100189.84
2022-12-29T13:27:17.667Z,100240.63
2022-12-29T13:30:10.748Z,100241.47
2022-12-29T13:33:21.406Z,100237.03
2022-12-29T13:39:51.798Z,100222.13
2022-12-29T13:42:40.567Z,100133.28
2022-12-29T13:45:34.284Z,100198.53
2022-12-29T13:48:47.184Z,100186.31
2022-12-29T13:51:36.623Z,100150.84
2022-12-29T13:54:45.150Z,100177.50
2022-12-29T13:57:30.610Z,100180.03
2022-12-29T14:00:05.806Z,100164.34
2022-12-29T14:02:48.017Z,100164.28
2022-12-29T14:05:21.360Z,100156.41
2022-12-29T14:07:57.432Z,100164.22
2022-12-29T14:10:36.784Z,100146.72
2022-12-29T14:13:26.106Z,100151.03
2022-12-29T14:16:16.310Z,100139.66
2022-12-29T14:19:05.050Z,100131.72
2022-12-29T14:21:53.324Z,100121.22
2022-12-29T14:24:59.990Z,100121.19
2022-12-29T14:28:04.872Z,100121.13
2022-12-29T14:31:22.367Z,100112.34
2022-12-29T14:34:27.621Z,100118.34
2022-12-29T14:37:24.324Z,100077.66
2022-12-29T14:40:23.303Z,100102.59
2022-12-29T14:43:12.445Z,100095.56
2022-12-29T14:46:02.941Z,100085.97
2022-12-29T14:48:58.413Z,100068.69
2022-12-29T14:52:03.604Z,100082.34
2022-12-29T14:54:59.724Z,100062.25
2022-12-29T14:57:50.892Z,100063.03
2022-12-29T15:01:05.232Z,100060.34
2022-12-29T15:04:10.676Z,100054.34
2022-12-29T15:06:58.703Z,100041.22
2022-12-29T15:09:56.486Z,100033.22
2022-12-29T15:13:10.188Z,100041.00
2022-12-29T15:15:59.027Z,100035.72
2022-12-29T15:18:53.945Z,100038.28
2022-12-29T15:21:50.637Z,100024.25
2022-12-29T15:24:42.633Z,100032.94
2022-12-29T15:27:39.664Z,99918.38
2022-12-29T15:30:34.257Z,100014.53
2022-12-29T15:33:21.383Z,100009.28
2022-12-29T15:36:13.155Z,100009.25
2022-12-29T15:39:00.438Z,100004.84
2022-12-29T15:41:59.748Z,99997.78
2022-12-29T15:44:57.904Z,99990.75
2022-12-29T15:47:51.321Z,99946.06
2022-12-29T15:50:47.244Z,99975.00
2022-12-29T15:53:42.596Z,99977.56
2022-12-29T15:56:31.357Z,99977.53
2022-12-29T15:59:18.882Z,99964.44
2022-12-29T16:02:11.945Z,99954.00
2022-12-29T16:08:16.465Z,99948.69
2022-12-29T16:11:04.159Z,99909.00
2022-12-29T16:14:01.035Z,99939.06
2022-12-29T16:16:54.075Z,99944.22
2022-12-29T16:19:48.456Z,99910.22
2022-12-29T16:22:49.811Z,99916.28
2022-12-29T16:25:40.581Z,99923.22
2022-12-29T16:28:39.302Z,99907.50
2022-12-29T16:31:27.695Z,99894.38
2022-12-29T16:34:16.682Z,99894.34
2022-12-29T16:37:46.313Z,99885.59
2022-12-29T16:40:39.278Z,99889.03
2022-12-29T16:43:44.886Z,99803.78
2022-12-29T16:46:30.385Z,99870.63
2022-12-29T16:48:58.706Z,99879.34
2022-12-29T16:51:56.242Z,99869.69
2022-12-29T16:54:46.151Z,99865.28
2022-12-29T16:57:33.000Z,99853.91
2022-12-29T17:00:22.506Z,99847.81
2022-12-29T17:03:11.428Z,99757.72
2022-12-29T17:05:58.563Z,99832.91
2022-12-29T17:08:45.460Z,99835.50
2022-12-29T17:11:55.782Z,99838.09
2022-12-29T17:15:01.019Z,99835.47
2022-12-29T17:17:56.237Z,99832.81
2022-12-29T17:20:48.634Z,99817.06
2022-12-29T17:23:36.453Z,99813.53
2022-12-29T17:26:23.521Z,99821.34
2022-12-29T17:29:10.485Z,99802.13
2022-12-29T17:31:57.356Z,99791.59
2022-12-29T17:34:44.480Z,99795.97
2022-12-29T17:37:48.559Z,99778.66
2022-12-29T17:40:38.837Z,99777.59
2022-12-29T17:43:28.020Z,99767.94
2022-12-29T17:46:19.944Z,99765.25
2022-12-29T17:49:06.785Z,99762.66
2022-12-29T17:51:53.706Z,99767.84
2022-12-29T17:54:43.633Z,99760.84
2022-12-29T17:57:34.339Z,99740.19
2022-12-29T18:00:21.234Z,99750.28
2022-12-29T18:03:09.047Z,99734.56
2022-12-29T18:05:56.025Z,99726.69
2022-12-29T18:08:43.329Z,99701.53
2022-12-29T18:11:48.588Z,99708.47
2022-12-29T18:14:37.381Z,99699.56
2022-12-29T18:17:32.593Z,99656.66
2022-12-29T18:20:19.489Z,99691.72
2022-12-29T18:23:06.358Z,99687.41
2022-12-29T18:26:06.138Z,99683.03
2022-12-29T18:28:53.394Z,99689.81
2022-12-29T18:31:49.347Z,99670.00
2022-12-29T18:34:36.954Z,99604.91
2022-12-29T18:37:23.907Z,99662.72
2022-12-29T18:40:10.835Z,99573.09
2022-12-29T18:42:57.906Z,99667.13
2022-12-29T18:45:44.876Z,99653.03
2022-12-29T18:48:37.114Z,99653.81
2022-12-29T18:51:25.211Z,99635.72
2022-12-29T18:54:15.346Z,99547.44
2022-12-29T18:57:02.152Z,99636.44
2022-12-29T18:59:49.123Z,99623.31
2022-12-29T19:02:37.142Z,99634.47
2022-12-29T19:05:24.762Z,99620.53
2022-12-29T19:08:12.810Z,99605.66
2022-12-29T19:11:02.751Z,99610.03
2022-12-29T19:13:49.605Z,99510.66
2022-12-29T19:16:40.005Z,99602.94
2022-12-29T19:19:26.918Z,99610.81
2022-12-29T19:22:13.891Z,99600.22
2022-12-29T19:25:00.730Z,99597.63
2022-12-29T19:27:47.750Z,99606.28
2022-12-29T19:30:35.069Z,99570.59
2022-12-29T19:33:22.106Z,99583.53
2022-12-29T19:36:10.375Z,99573.84
2022-12-29T19:38:57.211Z,99567.72
2022-12-29T19:41:44.683Z,99553.72
2022-12-29T19:44:31.611Z,99558.09
2022-12-29T19:47:20.852Z,99558.91
2022-12-29T19:50:07.909Z,99542.47
2022-12-29T19:53:04.513Z,99532.72
2022-12-29T19:55:52.531Z,99545.69
2022-12-29T19:58:43.895Z,99528.19
2022-12-29T20:01:39.969Z,99510.91
2022-12-29T20:04:27.324Z,99524.59
2022-12-29T20:07:17.597Z,99521.09
2022-12-29T20:10:05.599Z,99510.56
2022-12-29T20:12:52.581Z,99512.31
2022-12-29T20:15:39.703Z,99474.63
2022-12-29T20:18:29.095Z,99513.06
2022-12-29T20:21:32.130Z,99499.91
2022-12-29T20:24:19.017Z,99380.69
2022-12-29T20:27:05.984Z,99487.53
2022-12-29T20:29:55.153Z,99477.94
2022-12-29T20:32:43.220Z,99488.41
2022-12-29T20:35:32.509Z,99471.72
2022-12-29T20:38:19.588Z,99464.72
2022-12-29T20:41:06.521Z,99452.44
2022-12-29T20:44:13.816Z,99445.34
2022-12-29T20:47:00.767Z,99448.84
2022-12-29T20:49:48.807Z,99432.38
2022-12-29T20:52:35.840Z,99433.88
2022-12-29T20:55:22.738Z,99419.84
2022-12-29T20:58:25.397Z,99434.66
2022-12-29T21:01:13.020Z,99342.84
2022-12-29T21:04:00.166Z,99409.31
2022-12-29T21:06:47.402Z,99396.28
2022-12-29T21:09:34.472Z,99378.13
2022-12-29T21:12:21.395Z,99394.34
2022-12-29T21:15:08.257Z,99392.50
2022-12-29T21:17:55.989Z,99387.22
2022-12-29T21:20:42.933Z,99381.06
2022-12-29T21:23:29.984Z,99381.00
2022-12-29T21:26:17.550Z,99375.09
2022-12-29T21:29:04.765Z,99376.63
2022-12-29T21:31:54.177Z,99372.09
2022-12-29T21:34:41.613Z,99300.16
2022-12-29T21:37:28.549Z,99345.91
2022-12-29T21:40:15.577Z,99338.16
2022-12-29T21:43:02.526Z,99339.59
2022-12-29T21:45:49.491Z,99338.66
2022-12-29T21:48:42.182Z,99276.94
2022-12-29T21:51:31.059Z,99309.28
2022-12-29T21:54:20.289Z,99300.09
2022-12-29T21:57:08.129Z,99321.00
2022-12-29T21:59:54.029Z,99324.44
2022-12-29T22:02:41.346Z,99321.78
2022-12-29T22:05:29.873Z,99302.09
2022-12-29T22:08:15.809Z,99284.81
2022-12-29T22:11:03.013Z,99307.66
2022-12-29T22:13:58.340Z,99265.81
2022-12-29T22:16:45.826Z,99295.31
2022-12-29T22:19:32.832Z,99290.94
2022-12-29T22:22:19.748Z,99296.13
2022-12-29T22:25:06.657Z,99216.53
2022-12-29T22:27:58.987Z,99284.63
2022-12-29T22:30:49.801Z,99261.69
2022-12-29T22:33:37.421Z,99203.56
2022-12-29T22:36:24.655Z,99239.81
2022-12-29T22:39:11.540Z,99273.06
2022-12-29T22:41:58.372Z,99265.31
2022-12-29T22:44:45.306Z,99238.78
2022-12-29T22:47:32.122Z,99268.56
2022-12-29T22:50:19.157Z,99256.41
2022-12-29T22:53:06.061Z,99256.41
2022-12-29T22:55:52.931Z,99255.38
2022-12-29T22:58:39.935Z,99244.84
2022-12-29T23:01:27.068Z,99238.66
2022-12-29T23:04:59.218Z,99230.78
2022-12-29T23:07:21.098Z,99242.16
2022-12-29T23:10:08.052Z,99224.56
2022-12-29T23:12:55.052Z,99225.56
2022-12-29T23:15:41.918Z,99201.44
2022-12-29T23:18:28.838Z,99223.72
2022-12-29T23:21:16.098Z,99209.56
2022-12-29T23:24:15.990Z,99208.63
2022-12-29T23:27:07.079Z,99185.63
2022-12-29T23:29:54.193Z,99199.94
2022-12-29T23:32:41.136Z,99159.69
2022-12-29T23:35:28.440Z,99200.63
2022-12-29T23:38:15.342Z,99198.81
2022-12-29T23:41:02.322Z,99162.38
2022-12-29T23:43:49.178Z,99183.19
2022-12-29T23:46:38.993Z,99188.19
2022-12-29T23:49:25.877Z,99181.09
2022-12-29T23:52:12.803Z,99181.09
2022-12-29T23:54:59.649Z,99177.56
2022-12-29T23:57:46.578Z,99170.53
